sensor_id;sensor_type;location;lat;lon;timestamp;pressure;altitude;pressure_sealevel;temperature;humidity
14790;BME280;7486;51.010;10.366;2023-03-04T00:00:39;98910.53;;;-1.10;75.84
14790;BME280;7486;51.010;10.366;2023-03-04T00:03:25;98905.69;;;-1.03;75.75
14790;BME280;7486;51.010;10.366;2023-03-04T00:06:10;98915.59;;;-1.08;76.09
14790;BME280;7486;51.010;10.366;2023-03-04T00:08:56;98898.19;;;-1.19;75.26
14790;BME280;7486;51.010;10.366;2023-03-04T00:11:41;98902.84;;;-1.11;75.43
14790;BME280;7486;51.010;10.366;2023-03-04T00:14:27;98906.38;;;-1.12;76.10
14790;BME280;7486;51.010;10.366;2023-03-04T00:17:14;98906.13;;;-1.20;75.93
14790;BME280;7486;51.010;10.366;2023-03-04T00:19:59;98907.31;;;-1.24;76.04
14790;BME280;7486;51.010;10.366;2023-03-04T00:22:46;98879.75;;;-1.38;75.93
14790;BME280;7486;51.010;10.366;2023-03-04T00:25:32;98900.81;;;-1.19;75.68
14790;BME280;7486;51.010;10.366;2023-03-04T00:28:18;98871.47;;;-1.32;75.68
14790;BME280;7486;51.010;10.366;2023-03-04T00:31:04;98900.47;;;-1.14;75.63
14790;BME280;7486;51.010;10.366;2023-03-04T00:33:49;98903.00;;;-1.48;76.54
14790;BME280;7486;51.010;10.366;2023-03-04T00:36:35;98903.16;;;-1.27;76.95
14790;BME280;7486;51.010;10.366;2023-03-04T00:39:20;98893.13;;;-1.09;76.40
14790;BME280;7486;51.010;10.366;2023-03-04T00:42:06;98882.41;;;-1.05;75.30
14790;BME280;7486;51.010;10.366;2023-03-04T00:44:52;98894.34;;;-0.91;74.70
14790;BME280;7486;51.010;10.366;2023-03-04T00:47:38;98890.69;;;-0.77;74.77
14790;BME280;7486;51.010;10.366;2023-03-04T00:50:24;98894.38;;;-0.69;74.13
14790;BME280;7486;51.010;10.366;2023-03-04T00:53:10;98887.38;;;-0.79;74.50
14790;BME280;7486;51.010;10.366;2023-03-04T00:55:55;98882.53;;;-0.73;73.76
14790;BME280;7486;51.010;10.366;2023-03-04T00:58:40;98879.69;;;-0.81;74.23
14790;BME280;7486;51.010;10.366;2023-03-04T01:01:26;98875.91;;;-0.88;74.31
14790;BME280;7486;51.010;10.366;2023-03-04T01:04:11;98870.94;;;-0.80;74.31
14790;BME280;7486;51.010;10.366;2023-03-04T01:06:57;98863.84;;;-0.67;73.97
14790;BME280;7486;51.010;10.366;2023-03-04T01:09:42;98864.09;;;-0.70;73.95
14790;BME280;7486;51.010;10.366;2023-03-04T01:12:27;98850.38;;;-1.05;75.20
14790;BME280;7486;51.010;10.366;2023-03-04T01:15:15;98859.34;;;-1.09;75.35
14790;BME280;7486;51.010;10.366;2023-03-04T01:18:01;98858.28;;;-0.96;75.00
14790;BME280;7486;51.010;10.366;2023-03-04T01:20:46;98852.03;;;-0.93;75.31
14790;BME280;7486;51.010;10.366;2023-03-04T01:23:32;98850.00;;;-0.78;74.59
14790;BME280;7486;51.010;10.366;2023-03-04T01:26:18;98823.19;;;-0.90;73.65
14790;BME280;7486;51.010;10.366;2023-03-04T01:29:04;98792.94;;;-1.35;74.59
14790;BME280;7486;51.010;10.366;2023-03-04T01:31:50;98837.38;;;-0.94;75.09
14790;BME280;7486;51.010;10.366;2023-03-04T01:34:37;98839.38;;;-0.86;74.90
14790;BME280;7486;51.010;10.366;2023-03-04T01:37:22;98845.75;;;-1.02;74.35
14790;BME280;7486;51.010;10.366;2023-03-04T01:40:08;98766.34;;;-1.50;75.31
14790;BME280;7486;51.010;10.366;2023-03-04T01:42:55;98829.81;;;-0.86;74.59
14790;BME280;7486;51.010;10.366;2023-03-04T01:45:40;98809.84;;;-1.08;74.42
14790;BME280;7486;51.010;10.366;2023-03-04T01:48:30;98822.22;;;-0.89;74.79
14790;BME280;7486;51.010;10.366;2023-03-04T01:51:17;98830.28;;;-0.81;74.26
14790;BME280;7486;51.010;10.366;2023-03-04T01:54:03;98817.63;;;-0.74;74.13
14790;BME280;7486;51.010;10.366;2023-03-04T01:56:50;98811.31;;;-0.61;73.56
14790;BME280;7486;51.010;10.366;2023-03-04T01:59:37;98817.13;;;-0.68;73.34
14790;BME280;7486;51.010;10.366;2023-03-04T02:02:23;98811.81;;;-0.78;73.49
14790;BME280;7486;51.010;10.366;2023-03-04T02:05:09;98807.25;;;-0.97;74.80
14790;BME280;7486;51.010;10.366;2023-03-04T02:07:56;98750.41;;;-1.34;75.06
14790;BME280;7486;51.010;10.366;2023-03-04T02:10:42;98800.25;;;-0.85;74.29
14790;BME280;7486;51.010;10.366;2023-03-04T02:13:29;98802.81;;;-0.63;73.49
14790;BME280;7486;51.010;10.366;2023-03-04T02:16:15;98780.59;;;-0.56;73.45
14790;BME280;7486;51.010;10.366;2023-03-04T02:19:01;98766.56;;;-0.86;73.60
14790;BME280;7486;51.010;10.366;2023-03-04T02:21:47;98783.44;;;-0.59;73.10
14790;BME280;7486;51.010;10.366;2023-03-04T02:24:42;98753.69;;;-0.99;73.71
14790;BME280;7486;51.010;10.366;2023-03-04T02:27:30;98763.25;;;-0.88;73.55
14790;BME280;7486;51.010;10.366;2023-03-04T02:30:19;98779.22;;;-1.04;74.22
14790;BME280;7486;51.010;10.366;2023-03-04T02:33:04;98783.50;;;-1.03;74.73
14790;BME280;7486;51.010;10.366;2023-03-04T02:35:51;98781.59;;;-0.90;74.01
14790;BME280;7486;51.010;10.366;2023-03-04T02:38:36;98755.47;;;-1.00;74.58
14790;BME280;7486;51.010;10.366;2023-03-04T02:41:24;98775.09;;;-1.07;74.66
14790;BME280;7486;51.010;10.366;2023-03-04T02:44:30;98752.28;;;-1.25;75.04
14790;BME280;7486;51.010;10.366;2023-03-04T02:47:17;98775.31;;;-1.43;75.40
14790;BME280;7486;51.010;10.366;2023-03-04T02:50:04;98733.16;;;-1.58;75.15
14790;BME280;7486;51.010;10.366;2023-03-04T02:52:49;98769.31;;;-1.21;75.15
14790;BME280;7486;51.010;10.366;2023-03-04T02:55:36;98768.59;;;-1.23;74.84
14790;BME280;7486;51.010;10.366;2023-03-04T02:58:23;98766.56;;;-1.20;74.62
14790;BME280;7486;51.010;10.366;2023-03-04T03:01:09;98765.88;;;-1.33;75.40
14790;BME280;7486;51.010;10.366;2023-03-04T03:03:54;98765.06;;;-1.11;74.55
14790;BME280;7486;51.010;10.366;2023-03-04T03:06:40;98758.91;;;-1.10;74.44
14790;BME280;7486;51.010;10.366;2023-03-04T03:09:26;98753.81;;;-1.12;74.28
14790;BME280;7486;51.010;10.366;2023-03-04T03:12:12;98765.75;;;-0.98;74.24
14790;BME280;7486;51.010;10.366;2023-03-04T03:14:58;98764.81;;;-0.97;73.73
14790;BME280;7486;51.010;10.366;2023-03-04T03:17:44;98752.06;;;-1.11;74.02
14790;BME280;7486;51.010;10.366;2023-03-04T03:20:31;98758.53;;;-0.95;74.04
14790;BME280;7486;51.010;10.366;2023-03-04T03:23:17;98745.03;;;-0.77;73.23
14790;BME280;7486;51.010;10.366;2023-03-04T03:26:02;98745.38;;;-0.82;73.01
14790;BME280;7486;51.010;10.366;2023-03-04T03:28:48;98746.13;;;-1.02;74.11
14790;BME280;7486;51.010;10.366;2023-03-04T03:31:33;98737.63;;;-0.93;73.53
14790;BME280;7486;51.010;10.366;2023-03-04T03:34:19;98747.97;;;-0.82;72.98
14790;BME280;7486;51.010;10.366;2023-03-04T03:37:05;98747.97;;;-0.82;73.06
14790;BME280;7486;51.010;10.366;2023-03-04T03:39:50;98743.28;;;-0.88;72.76
14790;BME280;7486;51.010;10.366;2023-03-04T03:42:36;98739.81;;;-0.66;72.72
14790;BME280;7486;51.010;10.366;2023-03-04T03:45:21;98731.78;;;-0.85;72.34
14790;BME280;7486;51.010;10.366;2023-03-04T03:48:06;98743.75;;;-0.83;72.77
14790;BME280;7486;51.010;10.366;2023-03-04T03:50:52;98743.03;;;-0.85;72.17
14790;BME280;7486;51.010;10.366;2023-03-04T03:53:37;98738.06;;;-0.88;72.41
14790;BME280;7486;51.010;10.366;2023-03-04T03:56:23;98747.38;;;-0.74;72.42
14790;BME280;7486;51.010;10.366;2023-03-04T03:59:08;98740.91;;;-0.80;72.15
14790;BME280;7486;51.010;10.366;2023-03-04T04:01:54;98697.84;;;-1.27;72.76
14790;BME280;7486;51.010;10.366;2023-03-04T04:04:39;98742.91;;;-0.83;72.16
14790;BME280;7486;51.010;10.366;2023-03-04T04:07:24;98709.34;;;-0.86;72.10
14790;BME280;7486;51.010;10.366;2023-03-04T04:10:10;98703.09;;;-0.95;71.84
14790;BME280;7486;51.010;10.366;2023-03-04T04:12:55;98738.63;;;-0.73;72.43
14790;BME280;7486;51.010;10.366;2023-03-04T04:15:41;98751.28;;;-0.69;72.45
14790;BME280;7486;51.010;10.366;2023-03-04T04:18:26;98746.09;;;-0.80;72.55
14790;BME280;7486;51.010;10.366;2023-03-04T04:21:11;98742.66;;;-0.69;72.99
14790;BME280;7486;51.010;10.366;2023-03-04T04:23:57;98749.09;;;-0.42;72.02
14790;BME280;7486;51.010;10.366;2023-03-04T04:26:43;98678.25;;;-0.77;70.88
14790;BME280;7486;51.010;10.366;2023-03-04T04:29:28;98745.66;;;-0.42;71.31
14790;BME280;7486;51.010;10.366;2023-03-04T04:32:14;98746.66;;;-0.65;72.15
14790;BME280;7486;51.010;10.366;2023-03-04T04:34:59;98741.91;;;-1.03;72.91
14790;BME280;7486;51.010;10.366;2023-03-04T04:37:44;98697.00;;;-1.16;73.54
14790;BME280;7486;51.010;10.366;2023-03-04T04:40:30;98741.56;;;-0.56;72.59
14790;BME280;7486;51.010;10.366;2023-03-04T04:43:15;98737.47;;;-0.69;72.11
14790;BME280;7486;51.010;10.366;2023-03-04T04:46:00;98682.78;;;-1.01;72.11
14790;BME280;7486;51.010;10.366;2023-03-04T04:48:46;98734.63;;;-0.77;72.50
14790;BME280;7486;51.010;10.366;2023-03-04T04:51:32;98738.22;;;-1.01;73.89
14790;BME280;7486;51.010;10.366;2023-03-04T04:54:19;98739.59;;;-0.85;73.11
14790;BME280;7486;51.010;10.366;2023-03-04T04:57:04;98726.97;;;-0.79;72.76
14790;BME280;7486;51.010;10.366;2023-03-04T04:59:50;98675.50;;;-1.29;73.32
14790;BME280;7486;51.010;10.366;2023-03-04T05:02:35;98665.59;;;-1.35;73.22
14790;BME280;7486;51.010;10.366;2023-03-04T05:05:21;98732.44;;;-1.04;74.11
14790;BME280;7486;51.010;10.366;2023-03-04T05:08:07;98723.53;;;-0.91;73.18
14790;BME280;7486;51.010;10.366;2023-03-04T05:10:52;98719.88;;;-0.99;73.50
14790;BME280;7486;51.010;10.366;2023-03-04T05:13:37;98735.72;;;-0.91;73.34
14790;BME280;7486;51.010;10.366;2023-03-04T05:16:23;98741.84;;;-0.81;73.49
14790;BME280;7486;51.010;10.366;2023-03-04T05:19:08;98746.03;;;-0.58;73.33
14790;BME280;7486;51.010;10.366;2023-03-04T05:21:54;98695.16;;;-0.82;72.63
14790;BME280;7486;51.010;10.366;2023-03-04T05:24:39;98726.56;;;-0.74;72.40
14790;BME280;7486;51.010;10.366;2023-03-04T05:27:24;98731.78;;;-0.85;73.34
14790;BME280;7486;51.010;10.366;2023-03-04T05:30:10;98733.56;;;-0.75;73.41
14790;BME280;7486;51.010;10.366;2023-03-04T05:32:56;98744.16;;;-0.56;72.65
14790;BME280;7486;51.010;10.366;2023-03-04T05:35:42;98732.84;;;-0.66;72.58
14790;BME280;7486;51.010;10.366;2023-03-04T05:38:28;98744.25;;;-0.46;71.67
14790;BME280;7486;51.010;10.366;2023-03-04T05:41:13;98742.50;;;-0.57;71.68
14790;BME280;7486;51.010;10.366;2023-03-04T05:43:58;98720.41;;;-0.62;71.66
14790;BME280;7486;51.010;10.366;2023-03-04T05:46:43;98742.44;;;-0.34;71.13
14790;BME280;7486;51.010;10.366;2023-03-04T05:49:29;98741.28;;;-0.42;71.06
14790;BME280;7486;51.010;10.366;2023-03-04T05:52:14;98751.69;;;-0.42;71.15
14790;BME280;7486;51.010;10.366;2023-03-04T05:55:00;98731.22;;;-0.46;71.15
14790;BME280;7486;51.010;10.366;2023-03-04T05:57:46;98728.69;;;-0.36;71.11
14790;BME280;7486;51.010;10.366;2023-03-04T06:00:32;98748.28;;;-0.21;70.61
14790;BME280;7486;51.010;10.366;2023-03-04T06:03:20;98757.47;;;-0.38;71.28
14790;BME280;7486;51.010;10.366;2023-03-04T06:06:05;98745.53;;;-0.20;71.15
14790;BME280;7486;51.010;10.366;2023-03-04T06:08:51;98754.47;;;-0.33;71.32
14790;BME280;7486;51.010;10.366;2023-03-04T06:11:36;98696.69;;;-0.80;71.23
14790;BME280;7486;51.010;10.366;2023-03-04T06:14:21;98696.94;;;-0.83;71.98
14790;BME280;7486;51.010;10.366;2023-03-04T06:17:07;98688.31;;;-0.83;71.83
14790;BME280;7486;51.010;10.366;2023-03-04T06:19:52;98735.38;;;-0.55;71.79
14790;BME280;7486;51.010;10.366;2023-03-04T06:22:37;98730.59;;;-0.70;72.42
14790;BME280;7486;51.010;10.366;2023-03-04T06:25:23;98699.78;;;-0.86;72.20
14790;BME280;7486;51.010;10.366;2023-03-04T06:28:09;98753.16;;;-0.60;72.49
14790;BME280;7486;51.010;10.366;2023-03-04T06:30:55;98746.28;;;-0.61;72.95
14790;BME280;7486;51.010;10.366;2023-03-04T06:33:41;98669.59;;;-1.20;73.05
14790;BME280;7486;51.010;10.366;2023-03-04T06:36:27;98751.97;;;-0.56;72.32
14790;BME280;7486;51.010;10.366;2023-03-04T06:39:12;98755.81;;;-0.39;72.03
14790;BME280;7486;51.010;10.366;2023-03-04T06:41:58;98759.50;;;-0.42;72.60
14790;BME280;7486;51.010;10.366;2023-03-04T06:44:44;98763.56;;;-0.60;73.40
14790;BME280;7486;51.010;10.366;2023-03-04T06:47:29;98760.47;;;-0.65;73.21
14790;BME280;7486;51.010;10.366;2023-03-04T06:50:15;98763.06;;;-0.54;73.31
14790;BME280;7486;51.010;10.366;2023-03-04T06:53:00;98761.19;;;-0.52;73.02
14790;BME280;7486;51.010;10.366;2023-03-04T06:55:46;98765.66;;;-0.54;73.81
14790;BME280;7486;51.010;10.366;2023-03-04T06:58:31;98764.91;;;-0.45;73.33
14790;BME280;7486;51.010;10.366;2023-03-04T07:01:23;98718.53;;;-0.71;72.47
14790;BME280;7486;51.010;10.366;2023-03-04T07:04:11;98714.44;;;-0.85;73.24
14790;BME280;7486;51.010;10.366;2023-03-04T07:06:57;98753.53;;;-0.32;73.03
14790;BME280;7486;51.010;10.366;2023-03-04T07:09:42;98761.00;;;-0.39;73.52
14790;BME280;7486;51.010;10.366;2023-03-04T07:12:28;98748.56;;;-0.35;73.57
14790;BME280;7486;51.010;10.366;2023-03-04T07:15:13;98752.22;;;-0.06;72.29
14790;BME280;7486;51.010;10.366;2023-03-04T07:17:59;98757.19;;;-0.03;72.19
14790;BME280;7486;51.010;10.366;2023-03-04T07:20:44;98761.66;;;0.06;72.59
14790;BME280;7486;51.010;10.366;2023-03-04T07:23:29;98759.47;;;0.11;71.41
14790;BME280;7486;51.010;10.366;2023-03-04T07:26:15;98731.84;;;-0.01;71.63
14790;BME280;7486;51.010;10.366;2023-03-04T07:29:00;98770.91;;;-0.01;71.64
14790;BME280;7486;51.010;10.366;2023-03-04T07:31:46;98749.75;;;-0.08;72.12
14790;BME280;7486;51.010;10.366;2023-03-04T07:34:31;98778.22;;;0.26;71.25
14790;BME280;7486;51.010;10.366;2023-03-04T07:37:17;98779.94;;;0.36;71.12
14790;BME280;7486;51.010;10.366;2023-03-04T07:40:03;98785.16;;;0.36;71.35
14790;BME280;7486;51.010;10.366;2023-03-04T07:42:53;98789.47;;;0.26;71.59
14790;BME280;7486;51.010;10.366;2023-03-04T07:45:39;98788.44;;;0.38;71.41
14790;BME280;7486;51.010;10.366;2023-03-04T07:48:25;98782.34;;;0.28;71.46
14790;BME280;7486;51.010;10.366;2023-03-04T07:53:59;98787.75;;;0.16;71.68
14790;BME280;7486;51.010;10.366;2023-03-04T07:56:44;98724.28;;;-0.25;71.77
14790;BME280;7486;51.010;10.366;2023-03-04T07:59:30;98793.84;;;0.26;71.41
14790;BME280;7486;51.010;10.366;2023-03-04T08:02:15;98778.81;;;0.29;71.64
14790;BME280;7486;51.010;10.366;2023-03-04T08:05:00;98786.41;;;0.21;72.17
14790;BME280;7486;51.010;10.366;2023-03-04T08:07:46;98788.53;;;0.06;72.26
14790;BME280;7486;51.010;10.366;2023-03-04T08:10:32;98777.09;;;-0.13;72.59
14790;BME280;7486;51.010;10.366;2023-03-04T08:13:17;98785.47;;;0.01;72.44
14790;BME280;7486;51.010;10.366;2023-03-04T08:16:03;98735.19;;;-0.10;71.92
14790;BME280;7486;51.010;10.366;2023-03-04T08:18:56;98777.69;;;-0.10;72.74
14790;BME280;7486;51.010;10.366;2023-03-04T08:21:42;98776.38;;;-0.04;73.48
14790;BME280;7486;51.010;10.366;2023-03-04T08:24:27;98737.31;;;-0.04;72.47
14790;BME280;7486;51.010;10.366;2023-03-04T08:27:12;98777.59;;;0.33;72.42
14790;BME280;7486;51.010;10.366;2023-03-04T08:29:58;98731.13;;;0.18;72.07
14790;BME280;7486;51.010;10.366;2023-03-04T08:32:43;98768.44;;;0.18;72.60
14790;BME280;7486;51.010;10.366;2023-03-04T08:35:29;98767.88;;;0.35;72.16
14790;BME280;7486;51.010;10.366;2023-03-04T08:38:15;98739.78;;;0.18;72.15
14790;BME280;7486;51.010;10.366;2023-03-04T08:41:01;98760.31;;;0.32;72.62
14790;BME280;7486;51.010;10.366;2023-03-04T08:43:46;98769.19;;;0.50;72.57
14790;BME280;7486;51.010;10.366;2023-03-04T08:46:33;98754.94;;;0.85;71.69
14790;BME280;7486;51.010;10.366;2023-03-04T08:49:18;98731.03;;;0.80;70.88
14790;BME280;7486;51.010;10.366;2023-03-04T08:52:03;98760.44;;;0.82;71.71
14790;BME280;7486;51.010;10.366;2023-03-04T08:54:49;98753.09;;;0.96;72.14
14790;BME280;7486;51.010;10.366;2023-03-04T08:57:34;98741.19;;;1.13;71.26
14790;BME280;7486;51.010;10.366;2023-03-04T09:00:20;98737.53;;;1.44;71.00
14790;BME280;7486;51.010;10.366;2023-03-04T09:03:05;98740.03;;;1.36;71.02
14790;BME280;7486;51.010;10.366;2023-03-04T09:05:51;98723.53;;;1.36;70.22
14790;BME280;7486;51.010;10.366;2023-03-04T09:08:36;98739.19;;;1.64;70.03
14790;BME280;7486;51.010;10.366;2023-03-04T09:11:21;98734.13;;;1.73;68.95
14790;BME280;7486;51.010;10.366;2023-03-04T09:14:10;98737.28;;;1.76;70.12
14790;BME280;7486;51.010;10.366;2023-03-04T09:16:56;98739.50;;;1.90;69.15
14790;BME280;7486;51.010;10.366;2023-03-04T09:19:41;98732.78;;;1.88;69.14
14790;BME280;7486;51.010;10.366;2023-03-04T09:22:27;98736.06;;;1.90;68.33
14790;BME280;7486;51.010;10.366;2023-03-04T09:25:13;98724.50;;;1.92;67.75
14790;BME280;7486;51.010;10.366;2023-03-04T09:27:59;98736.19;;;1.59;68.06
14790;BME280;7486;51.010;10.366;2023-03-04T09:30:44;98702.94;;;1.33;68.86
14790;BME280;7486;51.010;10.366;2023-03-04T09:33:29;98731.53;;;1.73;68.33
14790;BME280;7486;51.010;10.366;2023-03-04T09:36:15;98738.53;;;1.62;68.43
14790;BME280;7486;51.010;10.366;2023-03-04T09:39:01;98659.06;;;0.98;69.49
14790;BME280;7486;51.010;10.366;2023-03-04T09:41:52;98748.41;;;1.59;68.20
14790;BME280;7486;51.010;10.366;2023-03-04T09:44:42;98738.81;;;1.59;68.77
14790;BME280;7486;51.010;10.366;2023-03-04T09:47:33;98730.41;;;1.66;69.00
14790;BME280;7486;51.010;10.366;2023-03-04T09:50:19;98731.78;;;1.89;68.68
14790;BME280;7486;51.010;10.366;2023-03-04T09:53:06;98729.19;;;1.98;68.08
14790;BME280;7486;51.010;10.366;2023-03-04T09:55:58;98663.34;;;1.37;68.62
14790;BME280;7486;51.010;10.366;2023-03-04T10:01:48;98724.78;;;1.70;68.48
14790;BME280;7486;51.010;10.366;2023-03-04T10:04:39;98718.31;;;1.84;68.95
14790;BME280;7486;51.010;10.366;2023-03-04T10:07:32;98725.75;;;1.98;67.64
14790;BME280;7486;51.010;10.366;2023-03-04T10:10:29;98721.22;;;1.81;68.27
14790;BME280;7486;51.010;10.366;2023-03-04T10:13:23;98722.16;;;1.89;68.73
14790;BME280;7486;51.010;10.366;2023-03-04T10:16:13;98723.78;;;2.09;68.10
14790;BME280;7486;51.010;10.366;2023-03-04T10:21:54;98677.38;;;1.65;67.22
14790;BME280;7486;51.010;10.366;2023-03-04T10:24:39;98720.81;;;1.95;67.96
14790;BME280;7486;51.010;10.366;2023-03-04T10:27:25;98724.19;;;2.14;68.36
14790;BME280;7486;51.010;10.366;2023-03-04T10:30:31;98724.03;;;2.16;68.66
14790;BME280;7486;51.010;10.366;2023-03-04T10:33:26;98723.25;;;2.16;68.19
14790;BME280;7486;51.010;10.366;2023-03-04T10:39:15;98716.25;;;1.97;68.91
14790;BME280;7486;51.010;10.366;2023-03-04T10:42:04;98724.13;;;1.78;70.06
14790;BME280;7486;51.010;10.366;2023-03-04T10:44:56;98724.91;;;1.97;70.08
14790;BME280;7486;51.010;10.366;2023-03-04T10:47:51;98715.84;;;2.01;69.96
14790;BME280;7486;51.010;10.366;2023-03-04T10:50:37;98720.53;;;1.98;69.99
14790;BME280;7486;51.010;10.366;2023-03-04T10:53:41;98682.31;;;1.87;70.08
14790;BME280;7486;51.010;10.366;2023-03-04T10:56:56;98719.00;;;2.05;69.87
14790;BME280;7486;51.010;10.366;2023-03-04T10:59:49;98720.81;;;1.95;70.17
14790;BME280;7486;51.010;10.366;2023-03-04T11:02:40;98695.09;;;1.90;70.19
14790;BME280;7486;51.010;10.366;2023-03-04T11:05:25;98695.91;;;1.72;70.86
14790;BME280;7486;51.010;10.366;2023-03-04T11:08:18;98710.34;;;2.04;70.48
14790;BME280;7486;51.010;10.366;2023-03-04T11:11:20;98661.25;;;1.98;69.93
14790;BME280;7486;51.010;10.366;2023-03-04T11:14:23;98699.13;;;2.31;69.78
14790;BME280;7486;51.010;10.366;2023-03-04T11:17:24;98703.28;;;2.14;70.57
14790;BME280;7486;51.010;10.366;2023-03-04T11:20:31;98699.00;;;2.23;70.58
14790;BME280;7486;51.010;10.366;2023-03-04T11:23:43;98691.69;;;2.27;69.83
14790;BME280;7486;51.010;10.366;2023-03-04T11:26:44;98682.22;;;2.26;70.30
14790;BME280;7486;51.010;10.366;2023-03-04T11:29:42;98683.94;;;2.44;69.96
14790;BME280;7486;51.010;10.366;2023-03-04T11:32:36;98679.47;;;2.64;68.26
14790;BME280;7486;51.010;10.366;2023-03-04T11:35:30;98683.69;;;2.75;69.07
14790;BME280;7486;51.010;10.366;2023-03-04T11:41:32;98669.50;;;2.77;67.93
14790;BME280;7486;51.010;10.366;2023-03-04T11:44:18;98646.00;;;2.68;67.87
14790;BME280;7486;51.010;10.366;2023-03-04T11:53:35;98669.19;;;3.07;67.17
14790;BME280;7486;51.010;10.366;2023-03-04T11:56:49;98669.19;;;3.07;66.90
14790;BME280;7486;51.010;10.366;2023-03-04T12:03:26;98661.66;;;2.95;67.73
14790;BME280;7486;51.010;10.366;2023-03-04T12:36:51;98642.03;;;2.91;67.91
14790;BME280;7486;51.010;10.366;2023-03-04T12:39:56;98630.13;;;2.96;68.89
14790;BME280;7486;51.010;10.366;2023-03-04T12:46:01;98609.50;;;2.48;70.26
14790;BME280;7486;51.010;10.366;2023-03-04T12:55:18;98607.75;;;2.67;70.23
14790;BME280;7486;51.010;10.366;2023-03-04T12:58:14;98609.03;;;2.80;69.36
14790;BME280;7486;51.010;10.366;2023-03-04T13:03:58;98605.00;;;2.86;69.39
14790;BME280;7486;51.010;10.366;2023-03-04T13:12:49;98600.59;;;2.86;68.99
14790;BME280;7486;51.010;10.366;2023-03-04T13:15:38;98610.06;;;2.70;69.27
14790;BME280;7486;51.010;10.366;2023-03-04T13:18:34;98611.50;;;2.82;69.82
14790;BME280;7486;51.010;10.366;2023-03-04T13:21:25;98583.91;;;2.70;69.20
14790;BME280;7486;51.010;10.366;2023-03-04T13:24:47;98598.06;;;2.77;69.47
14790;BME280;7486;51.010;10.366;2023-03-04T13:33:46;98590.06;;;2.51;70.32
14790;BME280;7486;51.010;10.366;2023-03-04T13:36:32;98582.69;;;2.46;70.33
14790;BME280;7486;51.010;10.366;2023-03-04T13:39:25;98587.81;;;2.38;71.08
14790;BME280;7486;51.010;10.366;2023-03-04T13:42:37;98579.38;;;2.44;70.83
14790;BME280;7486;51.010;10.366;2023-03-04T13:48:29;98563.00;;;2.42;69.97
14790;BME280;7486;51.010;10.366;2023-03-04T13:54:30;98560.88;;;2.55;68.91
14790;BME280;7486;51.010;10.366;2023-03-04T14:00:03;98520.44;;;2.68;67.71
14790;BME280;7486;51.010;10.366;2023-03-04T14:02:52;98552.38;;;2.71;67.22
14790;BME280;7486;51.010;10.366;2023-03-04T14:05:37;98548.66;;;2.74;67.36
14790;BME280;7486;51.010;10.366;2023-03-04T14:08:23;98551.19;;;2.83;67.57
14790;BME280;7486;51.010;10.366;2023-03-04T14:11:13;98554.47;;;3.03;67.31
14790;BME280;7486;51.010;10.366;2023-03-04T14:14:03;98551.13;;;2.93;66.82
14790;BME280;7486;51.010;10.366;2023-03-04T14:16:53;98491.22;;;2.54;66.94
14790;BME280;7486;51.010;10.366;2023-03-04T14:19:44;98533.09;;;2.90;66.81
14790;BME280;7486;51.010;10.366;2023-03-04T14:22:38;98541.09;;;3.06;66.74
14790;BME280;7486;51.010;10.366;2023-03-04T14:25:29;98505.13;;;2.55;67.71
14790;BME280;7486;51.010;10.366;2023-03-04T14:28:17;98525.91;;;2.92;67.52
14790;BME280;7486;51.010;10.366;2023-03-04T14:31:03;98517.47;;;2.62;66.77
14790;BME280;7486;51.010;10.366;2023-03-04T14:33:51;98523.97;;;2.58;67.02
14790;BME280;7486;51.010;10.366;2023-03-04T14:36:37;98510.75;;;2.60;68.06
14790;BME280;7486;51.010;10.366;2023-03-04T14:39:25;98519.78;;;2.65;68.38
14790;BME280;7486;51.010;10.366;2023-03-04T14:42:14;98525.47;;;2.79;68.29
14790;BME280;7486;51.010;10.366;2023-03-04T14:45:00;98522.47;;;2.91;68.83
14790;BME280;7486;51.010;10.366;2023-03-04T14:47:46;98519.09;;;2.99;68.44
14790;BME280;7486;51.010;10.366;2023-03-04T14:50:32;98517.09;;;2.93;69.23
14790;BME280;7486;51.010;10.366;2023-03-04T14:53:23;98515.75;;;2.89;69.79
14790;BME280;7486;51.010;10.366;2023-03-04T14:56:09;98516.88;;;2.69;69.91
14790;BME280;7486;51.010;10.366;2023-03-04T14:58:56;98532.19;;;2.63;71.44
14790;BME280;7486;51.010;10.366;2023-03-04T15:01:42;98527.34;;;2.69;72.00
14790;BME280;7486;51.010;10.366;2023-03-04T15:04:27;98518.00;;;2.84;72.12
14790;BME280;7486;51.010;10.366;2023-03-04T15:07:22;98518.69;;;2.86;72.03
14790;BME280;7486;51.010;10.366;2023-03-04T15:10:11;98510.75;;;2.78;72.22
14790;BME280;7486;51.010;10.366;2023-03-04T15:12:59;98494.22;;;2.95;71.92
14790;BME280;7486;51.010;10.366;2023-03-04T15:15:45;98512.94;;;3.26;71.21
14790;BME280;7486;51.010;10.366;2023-03-04T15:18:31;98518.41;;;3.32;70.50
14790;BME280;7486;51.010;10.366;2023-03-04T15:24:08;98506.00;;;3.34;70.55
14790;BME280;7486;51.010;10.366;2023-03-04T15:26:53;98494.28;;;3.38;70.12
14790;BME280;7486;51.010;10.366;2023-03-04T15:29:38;98501.50;;;3.27;70.63
14790;BME280;7486;51.010;10.366;2023-03-04T15:32:25;98491.13;;;3.17;70.85
14790;BME280;7486;51.010;10.366;2023-03-04T15:35:14;98511.66;;;3.04;71.15
14790;BME280;7486;51.010;10.366;2023-03-04T15:38:00;98515.41;;;2.84;72.13
14790;BME280;7486;51.010;10.366;2023-03-04T15:40:46;98517.53;;;2.53;74.39
14790;BME280;7486;51.010;10.366;2023-03-04T15:43:32;98518.72;;;2.41;75.81
14790;BME280;7486;51.010;10.366;2023-03-04T15:46:17;98509.41;;;2.56;75.26
14790;BME280;7486;51.010;10.366;2023-03-04T15:49:03;98512.16;;;2.72;74.00
14790;BME280;7486;51.010;10.366;2023-03-04T15:51:48;98485.66;;;2.67;73.82
14790;BME280;7486;51.010;10.366;2023-03-04T15:54:33;98450.34;;;2.53;73.27
14790;BME280;7486;51.010;10.366;2023-03-04T15:57:26;98502.66;;;2.89;72.92
14790;BME280;7486;51.010;10.366;2023-03-04T16:00:12;98448.75;;;2.52;72.89
14790;BME280;7486;51.010;10.366;2023-03-04T16:02:58;98504.09;;;2.83;73.28
14790;BME280;7486;51.010;10.366;2023-03-04T16:05:46;98496.88;;;2.77;73.36
14790;BME280;7486;51.010;10.366;2023-03-04T16:08:32;98492.50;;;2.86;72.73
14790;BME280;7486;51.010;10.366;2023-03-04T16:11:25;98494.78;;;2.81;72.88
14790;BME280;7486;51.010;10.366;2023-03-04T16:14:11;98493.03;;;2.72;72.62
14790;BME280;7486;51.010;10.366;2023-03-04T16:16:57;98479.97;;;2.72;72.55
14790;BME280;7486;51.010;10.366;2023-03-04T16:19:42;98493.41;;;2.77;71.96
14790;BME280;7486;51.010;10.366;2023-03-04T16:22:28;98490.38;;;2.63;72.72
14790;BME280;7486;51.010;10.366;2023-03-04T16:25:15;98489.75;;;2.70;72.81